Mentor, MN

4:22 PM CDT on September 22, 2014 (GMT -0500)
Rural Gentilly | Change Station
CLOSE
Current Station
Personal Weather Station
Location: Red Lake Falls, MN
Elevation: 1014 ft
Nearby Weather Stations

Elev 1014 ft 47.82 °N, 96.37 °W | Updated 8 minutes ago

Clear
Clear
77.9 °F
Feels Like 79 °F
N
5.1
Wind Variable Wind from WSW

Today
High -- | Low -- °F
--% Chance of Precip.
Yesterday
High -- | Low -- °F
Precip. -- in
7:11 AM 7:22 PM
Waning Crescent, 2% visible
Pressure 30.10 in
Visibility 10.0 miles
Clouds Clear
Heat Index 79 °F
Dew Point 54 °F
Humidity 44%
Rainfall 0.00 in
Snow Depth Not available.
UV 3 out of 12
Pollen 3.40 out of 12
Air Quality Not available.
Flu Activity Not available.
METAR KFSE 222115Z AUTO 22007KT 10SM CLR 24/09 A3010 RMK AO2

More Conditions Fewer Conditions

Pressure 30.10 in
Visibility 10.0 miles
Clouds Clear
Heat Index 79 °F
Dew Point 54 °F
Humidity 44%
Rainfall 0.00 in
Snow Depth Not available.
UV 3 out of 12
Pollen 3.40 out of 12
Air Quality Not available.
Flu Activity Not available.
METAR KFSE 222115Z AUTO 22007KT 10SM CLR 24/09 A3010 RMK AO2

More Conditions Fewer Conditions

10-Day Weather Forecast

Almanac

Astronomy

Sep. 22, 2014 Rise Set
Actual Time 7:11 AM CDT 7:22 PM CDT
Civil Twilight 6:40 AM CDT 7:53 PM CDT
Nautical Twilight 6:04 AM CDT 8:29 PM CDT
Astronomical Twilight 5:27 AM CDT 9:06 PM CDT
Moon 5:36 AM CDT 6:33 PM CDT
Length of Visible Light 13h 12m
Length of Day
12h 10m
Tomorrow will be 3m 26s shorter.
Waning Crescent, 2% of the Moon is Illuminated
Today
Waning Crescent
Sep 24
New
Oct 1
First Quarter
Oct 8
Full
Oct 15
Last Quarter

Today's Extremes

State Highs State Lows

Community

WunderPhotos

Upload Photos

1,755,536 photos uploaded!

Nearby

Snow Depth

Station Depth Elevation
No new snow has been reported.

Earthquake Activity

City Distance Mag. Time & Date
No recent earthquake activity has been reported nearby.
Minimum magnitude displayed is 2.5.

Coastal Water Temperatures

Place Temperature
No Stations Reporting

Nearby Weather Stations